This is the latest recevied weather packets stored in our database for station/object N3SBK. If no packets are shown the sender has not sent any weather packets the latest 10 day(s).
| Time | Temp. | Humidity | Pressure | Rain* | Wind** | Luminosity | Snow |
|---|---|---|---|---|---|---|---|
| 1777972895 | 12.78° C | 89% | 1000.2 hPa | 0 mm | - | 0 W/m² | - |
| 1777972591 | 12.78° C | 90% | 1000.4 hPa | 0 mm | - | 0 W/m² | - |
| 1777972290 | 12.78° C | 91% | 1000.2 hPa | 0 mm | - | 0 W/m² | - |
| 1777971987 | 12.78° C | 90% | 1000.5 hPa | 0 mm | - | 0 W/m² | - |
| 1777971685 | 13.33° C | 89% | 1000.6 hPa | 0 mm | - | 0 W/m² | - |
| 1777971382 | 13.33° C | 88% | 1000.6 hPa | 0 mm | - | 0 W/m² | - |
| 1777971080 | 13.33° C | 87% | 1000.7 hPa | 0 mm | - | 0 W/m² | - |
| 1777970778 | 13.89° C | 84% | 1000.7 hPa | 0 mm | - | 0 W/m² | - |
| 1777970476 | 14.44° C | 81% | 1000.7 hPa | 0 mm | - | 0 W/m² | - |
| 1777970173 | 15° C | 77% | 1000.9 hPa | 0 mm | - | 0 W/m² | - |
| 1777969869 | 15° C | 77% | 1001 hPa | 0 mm | - | 0 W/m² | - |
| 1777969565 | 14.44° C | 77% | 1001 hPa | 0 mm | - | 0 W/m² | - |
| 1777969263 | 15° C | 78% | 1001 hPa | 0 mm | - | 0 W/m² | - |
| 1777968959 | 14.44° C | 79% | 1000.9 hPa | 4.83 mm | - | 0 W/m² | - |
| 1777968656 | 15.56° C | 75% | 1000.8 hPa | 4.32 mm | - | 0 W/m² | - |
| 1777968352 | 16.67° C | 68% | 1000.9 hPa | 1.27 mm | - | 0 W/m² | - |
| 1777968049 | 16.67° C | 63% | 1000.4 hPa | 0 mm | - | 0 W/m² | - |
| 1777967744 | 17.22° C | 61% | 1000.3 hPa | 0 mm | - | 0 W/m² | - |
| 1777967442 | 16.67° C | 61% | 1000 hPa | 0 mm | - | 0 W/m² | - |
| 1777967138 | 16.67° C | 61% | 999.9 hPa | 0 mm | - | 0 W/m² | - |
| 1777966836 | 16.67° C | 65% | 999.5 hPa | 0 mm | - | 0 W/m² | - |
| 1777966533 | 16.67° C | 63% | 999.8 hPa | 0 mm | - | 0 W/m² | - |
| 1777966232 | 16.11° C | 63% | 999.9 hPa | 0 mm | - | 0 W/m² | - |
| 1777965927 | 16.11° C | 66% | 999.6 hPa | 0 mm | - | 0 W/m² | - |
| 1777965623 | 16.67° C | 66% | 999.6 hPa | 0 mm | - | 0 W/m² | - |
* Rain latest hour (hover to see other rain measurements)
** Current wind speed in m/s (hover to see current wind gust speed)